sensor_id;sensor_type;location;lat;lon;timestamp;pressure;altitude;pressure_sealevel;temperature;humidity
80620;BME280;69979;53.682;-2.690;2023-09-19T00:00:00;99829.79;;;9.13;61.09
80620;BME280;69979;53.682;-2.690;2023-09-19T00:02:25;99815.57;;;9.08;61.74
80620;BME280;69979;53.682;-2.690;2023-09-19T00:04:51;99808.97;;;9.39;60.98
80620;BME280;69979;53.682;-2.690;2023-09-19T00:07:16;99810.64;;;10.06;59.11
80620;BME280;69979;53.682;-2.690;2023-09-19T00:09:42;99800.49;;;9.81;59.65
80620;BME280;69979;53.682;-2.690;2023-09-19T00:12:07;99809.24;;;9.53;60.00
80620;BME280;69979;53.682;-2.690;2023-09-19T00:14:33;99817.70;;;9.51;59.28
80620;BME280;69979;53.682;-2.690;2023-09-19T00:16:58;99819.56;;;9.75;59.16
80620;BME280;69979;53.682;-2.690;2023-09-19T00:19:24;99817.86;;;9.20;60.38
80620;BME280;69979;53.682;-2.690;2023-09-19T00:21:49;99809.49;;;9.79;59.26
80620;BME280;69979;53.682;-2.690;2023-09-19T00:24:15;99814.88;;;9.42;59.47
80620;BME280;69979;53.682;-2.690;2023-09-19T00:26:40;99824.33;;;9.71;59.23
80620;BME280;69979;53.682;-2.690;2023-09-19T00:29:06;99825.92;;;10.24;58.39
80620;BME280;69979;53.682;-2.690;2023-09-19T00:31:32;99823.77;;;10.87;56.10
80620;BME280;69979;53.682;-2.690;2023-09-19T00:33:57;99832.69;;;10.43;56.72
80620;BME280;69979;53.682;-2.690;2023-09-19T00:36:23;99826.91;;;10.33;56.29
80620;BME280;69979;53.682;-2.690;2023-09-19T00:38:48;99817.58;;;10.49;57.55
80620;BME280;69979;53.682;-2.690;2023-09-19T00:41:13;99827.16;;;9.61;58.68
80620;BME280;69979;53.682;-2.690;2023-09-19T00:43:39;99825.65;;;9.83;58.29
80620;BME280;69979;53.682;-2.690;2023-09-19T00:46:04;99823.42;;;9.78;58.44
80620;BME280;69979;53.682;-2.690;2023-09-19T00:48:30;99823.79;;;9.61;58.23
80620;BME280;69979;53.682;-2.690;2023-09-19T00:50:57;99824.52;;;9.52;58.30
80620;BME280;69979;53.682;-2.690;2023-09-19T00:53:22;99814.97;;;9.44;59.42
80620;BME280;69979;53.682;-2.690;2023-09-19T00:55:47;99810.53;;;9.75;58.30
80620;BME280;69979;53.682;-2.690;2023-09-19T00:58:12;99809.31;;;9.65;57.62
80620;BME280;69979;53.682;-2.690;2023-09-19T01:00:38;99809.20;;;10.53;56.61
80620;BME280;69979;53.682;-2.690;2023-09-19T01:03:03;99810.20;;;10.47;56.67
80620;BME280;69979;53.682;-2.690;2023-09-19T01:05:29;99813.44;;;10.05;57.43
80620;BME280;69979;53.682;-2.690;2023-09-19T01:07:54;99808.95;;;10.11;57.11
80620;BME280;69979;53.682;-2.690;2023-09-19T01:10:20;99803.10;;;9.97;58.92
80620;BME280;69979;53.682;-2.690;2023-09-19T01:12:51;99810.57;;;9.95;57.72
80620;BME280;69979;53.682;-2.690;2023-09-19T01:15:19;99812.02;;;10.90;56.27
80620;BME280;69979;53.682;-2.690;2023-09-19T01:17:43;99809.45;;;10.00;56.49
80620;BME280;69979;53.682;-2.690;2023-09-19T01:20:17;99810.12;;;10.37;56.61
80620;BME280;69979;53.682;-2.690;2023-09-19T01:22:34;99813.99;;;10.20;56.60
80620;BME280;69979;53.682;-2.690;2023-09-19T01:25:07;99797.57;;;10.22;56.67
80620;BME280;69979;53.682;-2.690;2023-09-19T01:27:33;99795.68;;;9.88;57.63
80620;BME280;69979;53.682;-2.690;2023-09-19T01:29:46;99797.68;;;9.29;59.37
80620;BME280;69979;53.682;-2.690;2023-09-19T01:32:11;99800.49;;;9.93;58.33
80620;BME280;69979;53.682;-2.690;2023-09-19T01:34:45;99794.55;;;10.22;57.77
80620;BME280;69979;53.682;-2.690;2023-09-19T01:37:00;99790.60;;;9.40;59.78
80620;BME280;69979;53.682;-2.690;2023-09-19T01:39:26;99787.00;;;10.24;57.74
80620;BME280;69979;53.682;-2.690;2023-09-19T01:41:59;99795.08;;;9.84;59.92
80620;BME280;69979;53.682;-2.690;2023-09-19T01:44:24;99802.36;;;9.07;61.78
80620;BME280;69979;53.682;-2.690;2023-09-19T01:46:42;99795.35;;;10.03;59.73
80620;BME280;69979;53.682;-2.690;2023-09-19T01:49:18;99805.29;;;10.20;61.94
80620;BME280;69979;53.682;-2.690;2023-09-19T01:51:40;99798.57;;;9.72;61.89
80620;BME280;69979;53.682;-2.690;2023-09-19T01:54:02;99799.39;;;9.08;65.80
80620;BME280;69979;53.682;-2.690;2023-09-19T01:56:31;99791.87;;;9.71;64.15
80620;BME280;69979;53.682;-2.690;2023-09-19T01:58:53;99799.27;;;9.07;64.68
80620;BME280;69979;53.682;-2.690;2023-09-19T02:01:18;99799.34;;;9.27;63.72
80620;BME280;69979;53.682;-2.690;2023-09-19T02:03:41;99793.13;;;9.06;64.80
80620;BME280;69979;53.682;-2.690;2023-09-19T02:06:06;99788.50;;;9.81;63.60
80620;BME280;69979;53.682;-2.690;2023-09-19T02:08:32;99782.91;;;10.58;60.53
80620;BME280;69979;53.682;-2.690;2023-09-19T02:10:57;99777.00;;;10.37;59.24
80620;BME280;69979;53.682;-2.690;2023-09-19T02:13:23;99774.56;;;9.85;60.28
80620;BME280;69979;53.682;-2.690;2023-09-19T02:15:49;99768.25;;;10.48;58.77
80620;BME280;69979;53.682;-2.690;2023-09-19T02:18:14;99763.65;;;9.78;61.69
80620;BME280;69979;53.682;-2.690;2023-09-19T02:20:40;99756.96;;;9.98;60.61
80620;BME280;69979;53.682;-2.690;2023-09-19T02:23:06;99749.44;;;9.70;60.96
80620;BME280;69979;53.682;-2.690;2023-09-19T02:25:31;99742.12;;;9.67;60.61
80620;BME280;69979;53.682;-2.690;2023-09-19T02:27:56;99735.46;;;10.46;59.27
80620;BME280;69979;53.682;-2.690;2023-09-19T02:30:22;99737.64;;;10.50;59.15
80620;BME280;69979;53.682;-2.690;2023-09-19T02:32:47;99738.63;;;9.58;61.55
80620;BME280;69979;53.682;-2.690;2023-09-19T02:35:12;99738.12;;;9.71;61.89
80620;BME280;69979;53.682;-2.690;2023-09-19T02:37:38;99742.77;;;9.37;62.38
80620;BME280;69979;53.682;-2.690;2023-09-19T02:40:04;99742.30;;;9.88;61.43
80620;BME280;69979;53.682;-2.690;2023-09-19T02:42:29;99730.46;;;9.90;61.27
80620;BME280;69979;53.682;-2.690;2023-09-19T02:44:55;99729.79;;;9.55;61.90
80620;BME280;69979;53.682;-2.690;2023-09-19T02:47:20;99732.79;;;9.62;62.43
80620;BME280;69979;53.682;-2.690;2023-09-19T02:49:46;99734.71;;;9.71;63.10
80620;BME280;69979;53.682;-2.690;2023-09-19T02:52:11;99734.94;;;10.44;61.15
80620;BME280;69979;53.682;-2.690;2023-09-19T02:54:37;99736.70;;;9.59;62.71
80620;BME280;69979;53.682;-2.690;2023-09-19T02:57:02;99725.79;;;9.76;62.60
80620;BME280;69979;53.682;-2.690;2023-09-19T02:59:28;99729.07;;;9.30;61.67
80620;BME280;69979;53.682;-2.690;2023-09-19T03:01:53;99723.04;;;9.64;61.77
80620;BME280;69979;53.682;-2.690;2023-09-19T03:04:19;99718.89;;;9.74;61.76
80620;BME280;69979;53.682;-2.690;2023-09-19T03:06:44;99721.60;;;8.75;63.68
80620;BME280;69979;53.682;-2.690;2023-09-19T03:09:09;99720.27;;;8.99;62.68
80620;BME280;69979;53.682;-2.690;2023-09-19T03:11:35;99712.97;;;8.80;63.02
80620;BME280;69979;53.682;-2.690;2023-09-19T03:14:00;99708.63;;;8.85;63.78
80620;BME280;69979;53.682;-2.690;2023-09-19T03:16:26;99713.11;;;8.92;63.00
80620;BME280;69979;53.682;-2.690;2023-09-19T03:18:51;99713.56;;;8.96;61.85
80620;BME280;69979;53.682;-2.690;2023-09-19T03:21:17;99716.66;;;9.20;62.15
80620;BME280;69979;53.682;-2.690;2023-09-19T03:23:43;99713.75;;;9.61;60.62
80620;BME280;69979;53.682;-2.690;2023-09-19T03:26:08;99708.11;;;9.89;60.20
80620;BME280;69979;53.682;-2.690;2023-09-19T03:28:34;99699.48;;;9.31;62.05
80620;BME280;69979;53.682;-2.690;2023-09-19T03:31:00;99695.43;;;9.05;61.92
80620;BME280;69979;53.682;-2.690;2023-09-19T03:33:25;99687.12;;;10.42;59.20
80620;BME280;69979;53.682;-2.690;2023-09-19T03:35:52;99677.16;;;10.32;58.76
80620;BME280;69979;53.682;-2.690;2023-09-19T03:38:16;99671.19;;;10.80;58.36
80620;BME280;69979;53.682;-2.690;2023-09-19T03:40:44;99664.17;;;10.96;58.08
80620;BME280;69979;53.682;-2.690;2023-09-19T03:43:07;99658.10;;;11.23;57.60
80620;BME280;69979;53.682;-2.690;2023-09-19T03:45:34;99660.44;;;11.47;56.21
80620;BME280;69979;53.682;-2.690;2023-09-19T03:47:58;99651.13;;;10.64;58.31
80620;BME280;69979;53.682;-2.690;2023-09-19T03:50:24;99645.31;;;10.95;58.36
80620;BME280;69979;53.682;-2.690;2023-09-19T03:52:49;99649.49;;;11.46;57.19
80620;BME280;69979;53.682;-2.690;2023-09-19T03:55:15;99643.59;;;10.56;58.96
80620;BME280;69979;53.682;-2.690;2023-09-19T03:57:41;99633.88;;;10.65;58.88
80620;BME280;69979;53.682;-2.690;2023-09-19T04:00:07;99619.20;;;11.13;58.34
80620;BME280;69979;53.682;-2.690;2023-09-19T04:02:32;99608.50;;;10.69;59.04
80620;BME280;69979;53.682;-2.690;2023-09-19T04:04:57;99591.58;;;11.36;56.57
80620;BME280;69979;53.682;-2.690;2023-09-19T04:07:23;99593.25;;;11.18;57.62
80620;BME280;69979;53.682;-2.690;2023-09-19T04:09:48;99576.35;;;11.81;56.35
80620;BME280;69979;53.682;-2.690;2023-09-19T04:12:14;99565.34;;;11.85;56.53
80620;BME280;69979;53.682;-2.690;2023-09-19T04:14:39;99568.41;;;11.65;55.73
80620;BME280;69979;53.682;-2.690;2023-09-19T04:17:05;99561.73;;;12.26;54.33
80620;BME280;69979;53.682;-2.690;2023-09-19T04:19:30;99557.78;;;12.12;54.63
80620;BME280;69979;53.682;-2.690;2023-09-19T04:21:56;99546.36;;;12.08;54.84
80620;BME280;69979;53.682;-2.690;2023-09-19T04:24:22;99526.82;;;11.91;55.53
80620;BME280;69979;53.682;-2.690;2023-09-19T04:26:47;99524.87;;;11.91;54.82
80620;BME280;69979;53.682;-2.690;2023-09-19T04:29:12;99517.24;;;11.58;55.10
80620;BME280;69979;53.682;-2.690;2023-09-19T04:31:38;99514.80;;;11.99;54.09
80620;BME280;69979;53.682;-2.690;2023-09-19T04:34:04;99510.17;;;12.73;53.83
80620;BME280;69979;53.682;-2.690;2023-09-19T04:36:29;99498.91;;;10.97;56.84
80620;BME280;69979;53.682;-2.690;2023-09-19T04:38:55;99483.18;;;11.20;56.93
80620;BME280;69979;53.682;-2.690;2023-09-19T04:41:20;99477.90;;;11.53;55.81
80620;BME280;69979;53.682;-2.690;2023-09-19T04:43:46;99472.87;;;11.70;56.20
80620;BME280;69979;53.682;-2.690;2023-09-19T04:46:11;99466.39;;;10.85;57.81
80620;BME280;69979;53.682;-2.690;2023-09-19T04:48:37;99456.39;;;11.01;57.93
80620;BME280;69979;53.682;-2.690;2023-09-19T04:51:02;99445.41;;;10.88;58.25
80620;BME280;69979;53.682;-2.690;2023-09-19T04:53:28;99436.97;;;10.22;59.38
80620;BME280;69979;53.682;-2.690;2023-09-19T04:55:53;99430.78;;;10.20;59.78
80620;BME280;69979;53.682;-2.690;2023-09-19T04:58:19;99426.36;;;10.60;58.90
80620;BME280;69979;53.682;-2.690;2023-09-19T05:00:44;99418.96;;;10.18;60.39
80620;BME280;69979;53.682;-2.690;2023-09-19T05:03:10;99408.00;;;10.28;59.91
80620;BME280;69979;53.682;-2.690;2023-09-19T05:05:35;99387.86;;;10.60;59.27
80620;BME280;69979;53.682;-2.690;2023-09-19T05:08:01;99387.46;;;9.39;62.16
80620;BME280;69979;53.682;-2.690;2023-09-19T05:10:27;99375.36;;;10.05;60.98
80620;BME280;69979;53.682;-2.690;2023-09-19T05:12:53;99365.58;;;9.65;62.56
80620;BME280;69979;53.682;-2.690;2023-09-19T05:15:18;99344.93;;;8.97;64.14
80620;BME280;69979;53.682;-2.690;2023-09-19T05:17:48;99334.63;;;9.37;64.59
80620;BME280;69979;53.682;-2.690;2023-09-19T05:20:10;99322.72;;;9.42;63.30
80620;BME280;69979;53.682;-2.690;2023-09-19T05:22:34;99317.67;;;8.96;65.39
80620;BME280;69979;53.682;-2.690;2023-09-19T05:25:00;99311.89;;;8.09;67.86
80620;BME280;69979;53.682;-2.690;2023-09-19T05:27:26;99310.05;;;8.35;67.35
80620;BME280;69979;53.682;-2.690;2023-09-19T05:29:51;99310.90;;;7.96;69.15
80620;BME280;69979;53.682;-2.690;2023-09-19T05:32:17;99292.15;;;8.06;69.04
80620;BME280;69979;53.682;-2.690;2023-09-19T05:34:42;99296.83;;;8.41;68.03
80620;BME280;69979;53.682;-2.690;2023-09-19T05:37:08;99287.96;;;8.21;68.56
80620;BME280;69979;53.682;-2.690;2023-09-19T05:39:34;99282.45;;;8.45;68.79
80620;BME280;69979;53.682;-2.690;2023-09-19T05:41:59;99279.56;;;8.41;68.73
80620;BME280;69979;53.682;-2.690;2023-09-19T05:44:25;99283.45;;;8.31;69.79
80620;BME280;69979;53.682;-2.690;2023-09-19T05:46:51;99278.11;;;8.68;68.43
80620;BME280;69979;53.682;-2.690;2023-09-19T05:49:16;99270.17;;;8.36;69.59
80620;BME280;69979;53.682;-2.690;2023-09-19T05:51:41;99274.05;;;9.11;67.31
80620;BME280;69979;53.682;-2.690;2023-09-19T05:54:07;99270.37;;;8.81;68.09
80620;BME280;69979;53.682;-2.690;2023-09-19T05:56:33;99264.24;;;9.42;67.39
80620;BME280;69979;53.682;-2.690;2023-09-19T05:58:58;99255.47;;;9.32;67.23
80620;BME280;69979;53.682;-2.690;2023-09-19T06:01:24;99241.06;;;9.16;66.68
80620;BME280;69979;53.682;-2.690;2023-09-19T06:03:50;99236.17;;;9.31;67.10
80620;BME280;69979;53.682;-2.690;2023-09-19T06:06:15;99228.66;;;9.30;67.11
80620;BME280;69979;53.682;-2.690;2023-09-19T06:08:41;99215.89;;;9.08;68.45
80620;BME280;69979;53.682;-2.690;2023-09-19T06:11:06;99202.13;;;9.30;67.17
80620;BME280;69979;53.682;-2.690;2023-09-19T06:13:32;99201.19;;;9.02;69.33
80620;BME280;69979;53.682;-2.690;2023-09-19T06:15:57;99193.82;;;8.64;69.97
80620;BME280;69979;53.682;-2.690;2023-09-19T06:18:23;99180.71;;;9.02;69.63
80620;BME280;69979;53.682;-2.690;2023-09-19T06:20:49;99171.66;;;8.89;70.74
80620;BME280;69979;53.682;-2.690;2023-09-19T06:23:14;99157.18;;;9.27;69.88
80620;BME280;69979;53.682;-2.690;2023-09-19T06:25:40;99142.19;;;9.38;70.01
80620;BME280;69979;53.682;-2.690;2023-09-19T06:28:06;99132.32;;;9.21;69.66
80620;BME280;69979;53.682;-2.690;2023-09-19T06:30:31;99124.61;;;9.89;67.86
80620;BME280;69979;53.682;-2.690;2023-09-19T06:32:57;99112.78;;;9.32;69.24
80620;BME280;69979;53.682;-2.690;2023-09-19T06:35:22;99113.47;;;9.34;69.57
80620;BME280;69979;53.682;-2.690;2023-09-19T06:37:48;99104.28;;;9.24;70.41
80620;BME280;69979;53.682;-2.690;2023-09-19T06:40:14;99102.65;;;9.86;69.13
80620;BME280;69979;53.682;-2.690;2023-09-19T06:42:40;99083.37;;;9.48;70.05
80620;BME280;69979;53.682;-2.690;2023-09-19T06:45:06;99067.63;;;9.00;72.69
80620;BME280;69979;53.682;-2.690;2023-09-19T06:47:30;99065.59;;;9.61;71.99
80620;BME280;69979;53.682;-2.690;2023-09-19T06:49:56;99073.16;;;10.08;69.18
80620;BME280;69979;53.682;-2.690;2023-09-19T06:52:21;99075.46;;;10.17;69.51
80620;BME280;69979;53.682;-2.690;2023-09-19T06:54:47;99067.98;;;10.32;68.45
80620;BME280;69979;53.682;-2.690;2023-09-19T06:57:12;99064.86;;;10.21;69.41
80620;BME280;69979;53.682;-2.690;2023-09-19T06:59:39;99054.21;;;10.37;69.78
80620;BME280;69979;53.682;-2.690;2023-09-19T07:02:04;99045.51;;;9.26;73.72
80620;BME280;69979;53.682;-2.690;2023-09-19T07:04:29;99041.94;;;10.03;72.71
80620;BME280;69979;53.682;-2.690;2023-09-19T07:06:55;99048.98;;;10.01;72.50
80620;BME280;69979;53.682;-2.690;2023-09-19T07:09:20;99039.36;;;10.15;72.19
80620;BME280;69979;53.682;-2.690;2023-09-19T07:11:46;99045.50;;;10.11;72.90
80620;BME280;69979;53.682;-2.690;2023-09-19T07:14:11;99041.15;;;11.12;70.28
80620;BME280;69979;53.682;-2.690;2023-09-19T07:16:37;99037.60;;;10.85;70.06
80620;BME280;69979;53.682;-2.690;2023-09-19T07:19:02;99033.43;;;11.26;69.01
80620;BME280;69979;53.682;-2.690;2023-09-19T07:21:28;99024.92;;;11.31;68.85
80620;BME280;69979;53.682;-2.690;2023-09-19T07:23:53;99028.01;;;10.44;71.14
80620;BME280;69979;53.682;-2.690;2023-09-19T07:26:19;99027.15;;;11.22;69.86
80620;BME280;69979;53.682;-2.690;2023-09-19T07:28:45;99022.01;;;10.71;71.37
80620;BME280;69979;53.682;-2.690;2023-09-19T07:31:10;99019.26;;;11.00;70.34
80620;BME280;69979;53.682;-2.690;2023-09-19T07:33:36;99023.69;;;10.60;72.65
80620;BME280;69979;53.682;-2.690;2023-09-19T07:36:01;99021.75;;;11.09;70.76
80620;BME280;69979;53.682;-2.690;2023-09-19T07:38:27;99018.56;;;10.39;72.69
80620;BME280;69979;53.682;-2.690;2023-09-19T07:41:00;99014.23;;;10.64;71.35
80620;BME280;69979;53.682;-2.690;2023-09-19T07:43:22;99017.53;;;11.79;69.37
80620;BME280;69979;53.682;-2.690;2023-09-19T07:45:47;99011.96;;;12.07;68.84
80620;BME280;69979;53.682;-2.690;2023-09-19T07:48:13;99012.79;;;11.75;69.11
80620;BME280;69979;53.682;-2.690;2023-09-19T07:50:39;99014.04;;;11.69;69.23
80620;BME280;69979;53.682;-2.690;2023-09-19T07:53:04;99015.24;;;11.20;70.33
80620;BME280;69979;53.682;-2.690;2023-09-19T07:55:29;99012.18;;;12.30;69.19
80620;BME280;69979;53.682;-2.690;2023-09-19T07:57:55;99019.60;;;11.42;71.36
80620;BME280;69979;53.682;-2.690;2023-09-19T08:00:21;99017.92;;;11.55;71.72
80620;BME280;69979;53.682;-2.690;2023-09-19T08:02:46;99015.60;;;11.40;72.75
80620;BME280;69979;53.682;-2.690;2023-09-19T08:05:12;99017.17;;;11.70;72.12
80620;BME280;69979;53.682;-2.690;2023-09-19T08:07:37;99020.42;;;11.72;71.94
80620;BME280;69979;53.682;-2.690;2023-09-19T08:10:03;99018.84;;;11.84;71.14
80620;BME280;69979;53.682;-2.690;2023-09-19T08:12:28;99018.13;;;12.67;69.81
80620;BME280;69979;53.682;-2.690;2023-09-19T08:14:53;99020.20;;;12.53;68.98
80620;BME280;69979;53.682;-2.690;2023-09-19T08:17:19;99024.46;;;12.21;70.18
80620;BME280;69979;53.682;-2.690;2023-09-19T08:19:46;99030.31;;;12.56;69.69
80620;BME280;69979;53.682;-2.690;2023-09-19T08:22:10;99028.14;;;12.40;69.99
80620;BME280;69979;53.682;-2.690;2023-09-19T08:24:35;99029.35;;;12.64;69.46
80620;BME280;69979;53.682;-2.690;2023-09-19T08:27:01;99018.97;;;12.81;68.77
80620;BME280;69979;53.682;-2.690;2023-09-19T08:29:26;99024.67;;;12.90;70.21
80620;BME280;69979;53.682;-2.690;2023-09-19T08:31:52;99025.22;;;12.52;72.07
80620;BME280;69979;53.682;-2.690;2023-09-19T08:34:17;99043.97;;;12.07;74.18
80620;BME280;69979;53.682;-2.690;2023-09-19T08:36:43;99044.29;;;12.09;74.66
80620;BME280;69979;53.682;-2.690;2023-09-19T08:39:08;99040.99;;;12.07;74.90
80620;BME280;69979;53.682;-2.690;2023-09-19T08:41:34;99051.63;;;12.53;74.15
80620;BME280;69979;53.682;-2.690;2023-09-19T08:43:59;99049.21;;;12.83;72.83
80620;BME280;69979;53.682;-2.690;2023-09-19T08:46:26;99054.69;;;12.51;73.56
80620;BME280;69979;53.682;-2.690;2023-09-19T08:48:57;99049.11;;;12.97;71.82
80620;BME280;69979;53.682;-2.690;2023-09-19T08:51:21;99048.48;;;13.10;71.55
80620;BME280;69979;53.682;-2.690;2023-09-19T08:53:42;99055.47;;;13.52;71.81
80620;BME280;69979;53.682;-2.690;2023-09-19T08:56:10;99064.62;;;12.88;72.58
80620;BME280;69979;53.682;-2.690;2023-09-19T08:58:41;99069.46;;;13.52;70.76
80620;BME280;69979;53.682;-2.690;2023-09-19T09:00:58;99072.06;;;12.60;72.56
80620;BME280;69979;53.682;-2.690;2023-09-19T09:03:23;99067.17;;;13.28;71.55
80620;BME280;69979;53.682;-2.690;2023-09-19T09:05:50;99060.09;;;13.30;70.80
80620;BME280;69979;53.682;-2.690;2023-09-19T09:08:14;99072.39;;;12.89;72.47
80620;BME280;69979;53.682;-2.690;2023-09-19T09:10:39;99065.95;;;13.91;70.05
80620;BME280;69979;53.682;-2.690;2023-09-19T09:13:05;99064.65;;;13.78;69.15
80620;BME280;69979;53.682;-2.690;2023-09-19T09:15:31;99067.68;;;13.89;68.59
80620;BME280;69979;53.682;-2.690;2023-09-19T09:17:56;99062.20;;;13.57;70.55
80620;BME280;69979;53.682;-2.690;2023-09-19T09:20:21;99073.05;;;13.21;70.36
80620;BME280;69979;53.682;-2.690;2023-09-19T09:22:52;99078.29;;;13.15;72.55
80620;BME280;69979;53.682;-2.690;2023-09-19T09:25:12;99088.84;;;13.53;72.29
80620;BME280;69979;53.682;-2.690;2023-09-19T09:27:40;99082.57;;;13.47;71.18
80620;BME280;69979;53.682;-2.690;2023-09-19T09:30:03;99087.15;;;13.44;71.69
80620;BME280;69979;53.682;-2.690;2023-09-19T09:32:30;99082.89;;;13.31;72.04
80620;BME280;69979;53.682;-2.690;2023-09-19T09:34:55;99086.30;;;13.32;73.59
80620;BME280;69979;53.682;-2.690;2023-09-19T09:37:20;99092.04;;;13.45;72.10
80620;BME280;69979;53.682;-2.690;2023-09-19T09:39:50;99102.40;;;13.16;72.54
80620;BME280;69979;53.682;-2.690;2023-09-19T09:42:18;99090.17;;;13.69;70.33
80620;BME280;69979;53.682;-2.690;2023-09-19T09:44:36;99098.51;;;13.60;71.23
80620;BME280;69979;53.682;-2.690;2023-09-19T09:47:01;99102.52;;;13.84;68.90
80620;BME280;69979;53.682;-2.690;2023-09-19T09:49:28;99113.22;;;13.68;69.08
80620;BME280;69979;53.682;-2.690;2023-09-19T09:52:00;99117.11;;;13.24;72.27
80620;BME280;69979;53.682;-2.690;2023-09-19T09:54:18;99106.42;;;13.74;70.26
80620;BME280;69979;53.682;-2.690;2023-09-19T09:56:53;99114.73;;;13.91;69.92
80620;BME280;69979;53.682;-2.690;2023-09-19T09:59:08;99131.52;;;13.27;72.16
80620;BME280;69979;53.682;-2.690;2023-09-19T10:03:59;99112.55;;;14.02;70.73
80620;BME280;69979;53.682;-2.690;2023-09-19T10:06:24;99124.57;;;13.67;71.23
80620;BME280;69979;53.682;-2.690;2023-09-19T10:08:59;99128.04;;;13.60;71.39
80620;BME280;69979;53.682;-2.690;2023-09-19T10:11:16;99128.50;;;13.44;71.78
80620;BME280;69979;53.682;-2.690;2023-09-19T10:13:40;99126.27;;;13.61;70.43
80620;BME280;69979;53.682;-2.690;2023-09-19T10:16:09;99144.49;;;13.46;71.34
80620;BME280;69979;53.682;-2.690;2023-09-19T10:18:36;99147.47;;;13.44;72.48
80620;BME280;69979;53.682;-2.690;2023-09-19T10:20:57;99167.28;;;13.35;71.89
80620;BME280;69979;53.682;-2.690;2023-09-19T10:23:23;99145.01;;;13.41;71.67
80620;BME280;69979;53.682;-2.690;2023-09-19T10:25:49;99150.39;;;13.57;71.78
80620;BME280;69979;53.682;-2.690;2023-09-19T10:28:15;99145.85;;;13.44;72.70
80620;BME280;69979;53.682;-2.690;2023-09-19T10:30:42;99150.80;;;13.50;72.19
80620;BME280;69979;53.682;-2.690;2023-09-19T10:33:05;99152.60;;;13.46;72.26
80620;BME280;69979;53.682;-2.690;2023-09-19T10:35:30;99147.53;;;13.89;71.52
80620;BME280;69979;53.682;-2.690;2023-09-19T10:37:57;99144.83;;;13.61;72.41
80620;BME280;69979;53.682;-2.690;2023-09-19T10:40:21;99151.33;;;13.48;73.08
80620;BME280;69979;53.682;-2.690;2023-09-19T10:42:46;99149.58;;;13.71;72.72
80620;BME280;69979;53.682;-2.690;2023-09-19T10:45:12;99152.17;;;13.76;71.93
80620;BME280;69979;53.682;-2.690;2023-09-19T10:47:37;99157.40;;;13.20;73.29
80620;BME280;69979;53.682;-2.690;2023-09-19T10:50:02;99151.41;;;13.51;74.37
80620;BME280;69979;53.682;-2.690;2023-09-19T10:52:28;99156.23;;;13.65;72.70
80620;BME280;69979;53.682;-2.690;2023-09-19T10:54:56;99156.18;;;13.42;74.00
80620;BME280;69979;53.682;-2.690;2023-09-19T10:57:20;99167.70;;;13.18;75.74
80620;BME280;69979;53.682;-2.690;2023-09-19T11:02:16;99165.20;;;13.10;76.58
80620;BME280;69979;53.682;-2.690;2023-09-19T11:04:36;99167.70;;;13.37;74.33
80620;BME280;69979;53.682;-2.690;2023-09-19T11:07:02;99164.47;;;13.25;75.82
80620;BME280;69979;53.682;-2.690;2023-09-19T11:11:51;99173.59;;;13.28;75.67
80620;BME280;69979;53.682;-2.690;2023-09-19T11:14:30;99161.29;;;13.90;74.11
80620;BME280;69979;53.682;-2.690;2023-09-19T11:19:08;99163.35;;;13.99;72.66
80620;BME280;69979;53.682;-2.690;2023-09-19T11:28:58;99180.41;;;13.30;76.06
80620;BME280;69979;53.682;-2.690;2023-09-19T11:33:40;99177.94;;;14.03;73.18
80620;BME280;69979;53.682;-2.690;2023-09-19T11:36:07;99178.59;;;13.97;73.09
80620;BME280;69979;53.682;-2.690;2023-09-19T11:43:29;99177.99;;;13.97;73.61
80620;BME280;69979;53.682;-2.690;2023-09-19T11:46:04;99172.68;;;14.19;72.43
80620;BME280;69979;53.682;-2.690;2023-09-19T11:48:14;99177.84;;;14.17;72.89
80620;BME280;69979;53.682;-2.690;2023-09-19T11:50:39;99185.14;;;13.65;74.22
80620;BME280;69979;53.682;-2.690;2023-09-19T11:53:05;99181.16;;;14.01;73.23
80620;BME280;69979;53.682;-2.690;2023-09-19T11:55:29;99179.26;;;14.03;73.69
80620;BME280;69979;53.682;-2.690;2023-09-19T11:57:55;99187.36;;;13.42;74.77
80620;BME280;69979;53.682;-2.690;2023-09-19T12:00:20;99190.34;;;13.68;74.89
80620;BME280;69979;53.682;-2.690;2023-09-19T12:02:47;99187.17;;;13.67;75.21
80620;BME280;69979;53.682;-2.690;2023-09-19T12:05:11;99186.30;;;14.36;72.89
80620;BME280;69979;53.682;-2.690;2023-09-19T12:07:42;99191.88;;;13.84;75.07
80620;BME280;69979;53.682;-2.690;2023-09-19T12:10:04;99192.20;;;14.23;73.07
80620;BME280;69979;53.682;-2.690;2023-09-19T12:12:28;99192.08;;;14.57;71.68
80620;BME280;69979;53.682;-2.690;2023-09-19T12:14:54;99199.94;;;14.10;73.54
80620;BME280;69979;53.682;-2.690;2023-09-19T12:17:19;99204.58;;;13.98;73.94
80620;BME280;69979;53.682;-2.690;2023-09-19T12:19:50;99203.16;;;13.69;74.96
80620;BME280;69979;53.682;-2.690;2023-09-19T12:22:09;99206.28;;;13.79;74.95
80620;BME280;69979;53.682;-2.690;2023-09-19T12:24:35;99201.41;;;14.21;73.35
80620;BME280;69979;53.682;-2.690;2023-09-19T12:27:02;99207.88;;;14.63;72.55
80620;BME280;69979;53.682;-2.690;2023-09-19T12:29:26;99204.47;;;14.17;74.28
80620;BME280;69979;53.682;-2.690;2023-09-19T12:31:52;99202.93;;;13.93;74.33
80620;BME280;69979;53.682;-2.690;2023-09-19T12:34:19;99208.16;;;13.64;75.33
80620;BME280;69979;53.682;-2.690;2023-09-19T12:36:42;99203.26;;;13.45;76.89
80620;BME280;69979;53.682;-2.690;2023-09-19T12:39:08;99204.27;;;13.61;76.63
80620;BME280;69979;53.682;-2.690;2023-09-19T12:41:33;99198.44;;;14.05;75.10
80620;BME280;69979;53.682;-2.690;2023-09-19T12:43:58;99197.15;;;14.23;74.14
80620;BME280;69979;53.682;-2.690;2023-09-19T12:46:24;99189.53;;;14.25;74.17
80620;BME280;69979;53.682;-2.690;2023-09-19T12:51:15;99195.02;;;14.75;72.22
80620;BME280;69979;53.682;-2.690;2023-09-19T12:53:41;99191.36;;;14.20;73.75
80620;BME280;69979;53.682;-2.690;2023-09-19T12:56:06;99196.72;;;14.44;73.78
80620;BME280;69979;53.682;-2.690;2023-09-19T12:58:32;99195.99;;;14.14;74.64
80620;BME280;69979;53.682;-2.690;2023-09-19T13:00:56;99193.84;;;14.76;72.73
80620;BME280;69979;53.682;-2.690;2023-09-19T13:03:26;99192.92;;;14.52;72.53
80620;BME280;69979;53.682;-2.690;2023-09-19T13:05:49;99195.86;;;14.59;71.80
80620;BME280;69979;53.682;-2.690;2023-09-19T13:08:18;99196.88;;;14.50;72.28